Goodnow, Wisconsin
Current Conditions -  °F | °C
As of 7:53 AM on Thursday 29 Jan 2015 (Local Time) from KRHI Reporting Station
Overcast Overcast  
Wind Chill: 16°   Ceiling: 1100
Heat Index: 27°   Visibility: 10mi
Dew Point: 23°   Wind: 13mph
Humidity: 85%   Direction: 340°NNW
Pressure: 29.86"   Gusts: 23mph
Location:  45.679°N, 89.6629°W
Report Text: KRHI 291353Z AUTO 34011G20KT 10SM OVC011 M03/M05 A2986 RMK AO2 PK WND 32026/1254 SLP132 T10281050
Loading
Personal Weather Stations






























Interactive Weather Map New forecast layout! Learn more

10-Day Weather Forecast

Advertisements
Track Severe Weather on mobile